sensor_id;sensor_type;location;lat;lon;timestamp;temperature;humidity
78522;SHT31;67819;51.972;5.678;2023-08-17T00:00:09;17.4;74.7
78522;SHT31;67819;51.972;5.678;2023-08-17T00:02:40;17.4;74.7
78522;SHT31;67819;51.972;5.678;2023-08-17T00:05:10;17.3;74.5
78522;SHT31;67819;51.972;5.678;2023-08-17T00:07:39;17.3;74.5
78522;SHT31;67819;51.972;5.678;2023-08-17T00:10:07;17.3;74.5
78522;SHT31;67819;51.972;5.678;2023-08-17T00:12:36;17.3;74.6
78522;SHT31;67819;51.972;5.678;2023-08-17T00:15:05;17.3;74.5
78522;SHT31;67819;51.972;5.678;2023-08-17T00:17:34;17.2;74.5
78522;SHT31;67819;51.972;5.678;2023-08-17T00:20:03;17.2;74.5
78522;SHT31;67819;51.972;5.678;2023-08-17T00:22:33;17.2;74.5
78522;SHT31;67819;51.972;5.678;2023-08-17T00:25:01;17.2;74.5
78522;SHT31;67819;51.972;5.678;2023-08-17T00:27:31;17.2;74.6
78522;SHT31;67819;51.972;5.678;2023-08-17T00:30:00;17.2;74.6
78522;SHT31;67819;51.972;5.678;2023-08-17T00:32:28;17.2;74.6
78522;SHT31;67819;51.972;5.678;2023-08-17T00:34:57;17.2;74.6
78522;SHT31;67819;51.972;5.678;2023-08-17T00:37:25;17.1;74.6
78522;SHT31;67819;51.972;5.678;2023-08-17T00:39:54;17.1;74.6
78522;SHT31;67819;51.972;5.678;2023-08-17T00:42:22;17.1;74.8
78522;SHT31;67819;51.972;5.678;2023-08-17T00:44:51;17.1;74.7
78522;SHT31;67819;51.972;5.678;2023-08-17T00:47:20;17.0;74.8
78522;SHT31;67819;51.972;5.678;2023-08-17T00:49:48;17.0;74.7
78522;SHT31;67819;51.972;5.678;2023-08-17T00:52:17;17.0;75.0
78522;SHT31;67819;51.972;5.678;2023-08-17T00:54:46;17.0;75.0
78522;SHT31;67819;51.972;5.678;2023-08-17T00:57:14;17.0;75.1
78522;SHT31;67819;51.972;5.678;2023-08-17T00:59:43;16.9;75.0
78522;SHT31;67819;51.972;5.678;2023-08-17T01:02:12;16.9;75.2
78522;SHT31;67819;51.972;5.678;2023-08-17T01:04:40;16.9;75.3
78522;SHT31;67819;51.972;5.678;2023-08-17T01:07:09;16.9;75.3
78522;SHT31;67819;51.972;5.678;2023-08-17T01:09:38;16.9;75.7
78522;SHT31;67819;51.972;5.678;2023-08-17T01:12:17;16.9;75.4
78522;SHT31;67819;51.972;5.678;2023-08-17T01:14:54;16.8;75.5
78522;SHT31;67819;51.972;5.678;2023-08-17T01:17:28;16.8;75.5
78522;SHT31;67819;51.972;5.678;2023-08-17T01:19:58;16.8;75.5
78522;SHT31;67819;51.972;5.678;2023-08-17T01:22:32;16.7;75.6
78522;SHT31;67819;51.972;5.678;2023-08-17T01:25:03;16.7;75.8
78522;SHT31;67819;51.972;5.678;2023-08-17T01:27:37;16.7;75.9
78522;SHT31;67819;51.972;5.678;2023-08-17T01:30:10;16.6;76.0
78522;SHT31;67819;51.972;5.678;2023-08-17T01:32:44;16.6;76.1
78522;SHT31;67819;51.972;5.678;2023-08-17T01:35:20;16.6;76.3
78522;SHT31;67819;51.972;5.678;2023-08-17T01:37:53;16.5;76.4
78522;SHT31;67819;51.972;5.678;2023-08-17T01:40:25;16.5;76.5
78522;SHT31;67819;51.972;5.678;2023-08-17T01:42:55;16.5;76.7
78522;SHT31;67819;51.972;5.678;2023-08-17T01:45:25;16.4;76.7
78522;SHT31;67819;51.972;5.678;2023-08-17T01:47:54;16.4;77.0
78522;SHT31;67819;51.972;5.678;2023-08-17T01:50:23;16.3;77.2
78522;SHT31;67819;51.972;5.678;2023-08-17T01:52:52;16.2;77.7
78522;SHT31;67819;51.972;5.678;2023-08-17T01:55:21;16.1;77.9
78522;SHT31;67819;51.972;5.678;2023-08-17T01:57:51;16.0;78.2
78522;SHT31;67819;51.972;5.678;2023-08-17T02:00:19;15.9;78.5
78522;SHT31;67819;51.972;5.678;2023-08-17T02:02:48;15.9;79.1
78522;SHT31;67819;51.972;5.678;2023-08-17T02:05:16;15.8;79.2
78522;SHT31;67819;51.972;5.678;2023-08-17T02:07:45;15.8;79.5
78522;SHT31;67819;51.972;5.678;2023-08-17T02:10:14;15.7;80.0
78522;SHT31;67819;51.972;5.678;2023-08-17T02:12:42;15.7;80.1
78522;SHT31;67819;51.972;5.678;2023-08-17T02:15:11;15.7;80.4
78522;SHT31;67819;51.972;5.678;2023-08-17T02:17:39;15.6;80.5
78522;SHT31;67819;51.972;5.678;2023-08-17T02:20:09;15.6;80.7
78522;SHT31;67819;51.972;5.678;2023-08-17T02:22:38;15.6;80.9
78522;SHT31;67819;51.972;5.678;2023-08-17T02:25:07;15.6;81.0
78522;SHT31;67819;51.972;5.678;2023-08-17T02:27:36;15.6;81.2
78522;SHT31;67819;51.972;5.678;2023-08-17T02:30:05;15.6;81.3
78522;SHT31;67819;51.972;5.678;2023-08-17T02:32:34;15.6;81.4
78522;SHT31;67819;51.972;5.678;2023-08-17T02:35:03;15.6;81.5
78522;SHT31;67819;51.972;5.678;2023-08-17T02:37:32;15.6;81.7
78522;SHT31;67819;51.972;5.678;2023-08-17T02:40:00;15.6;81.6
78522;SHT31;67819;51.972;5.678;2023-08-17T02:42:32;15.6;81.8
78522;SHT31;67819;51.972;5.678;2023-08-17T02:45:01;15.6;81.9
78522;SHT31;67819;51.972;5.678;2023-08-17T02:47:29;15.7;81.9
78522;SHT31;67819;51.972;5.678;2023-08-17T02:49:58;15.7;81.9
78522;SHT31;67819;51.972;5.678;2023-08-17T02:52:26;15.7;81.8
78522;SHT31;67819;51.972;5.678;2023-08-17T02:54:55;15.7;81.8
78522;SHT31;67819;51.972;5.678;2023-08-17T02:57:23;15.7;81.7
78522;SHT31;67819;51.972;5.678;2023-08-17T02:59:52;15.7;81.6
78522;SHT31;67819;51.972;5.678;2023-08-17T03:02:20;15.7;81.4
78522;SHT31;67819;51.972;5.678;2023-08-17T03:04:49;15.7;81.5
78522;SHT31;67819;51.972;5.678;2023-08-17T03:07:19;15.7;81.5
78522;SHT31;67819;51.972;5.678;2023-08-17T03:09:48;15.7;81.5
78522;SHT31;67819;51.972;5.678;2023-08-17T03:12:18;15.7;81.4
78522;SHT31;67819;51.972;5.678;2023-08-17T03:14:47;15.7;81.5
78522;SHT31;67819;51.972;5.678;2023-08-17T03:17:15;15.7;81.4
78522;SHT31;67819;51.972;5.678;2023-08-17T03:19:44;15.7;81.4
78522;SHT31;67819;51.972;5.678;2023-08-17T03:22:12;15.8;81.4
78522;SHT31;67819;51.972;5.678;2023-08-17T03:24:41;15.8;81.2
78522;SHT31;67819;51.972;5.678;2023-08-17T03:27:09;15.8;81.1
78522;SHT31;67819;51.972;5.678;2023-08-17T03:29:38;15.7;81.0
78522;SHT31;67819;51.972;5.678;2023-08-17T03:32:07;15.7;81.0
78522;SHT31;67819;51.972;5.678;2023-08-17T03:34:35;15.7;81.1
78522;SHT31;67819;51.972;5.678;2023-08-17T03:37:04;15.7;81.1
78522;SHT31;67819;51.972;5.678;2023-08-17T03:39:33;15.7;81.0
78522;SHT31;67819;51.972;5.678;2023-08-17T03:42:02;15.7;81.0
78522;SHT31;67819;51.972;5.678;2023-08-17T03:44:30;15.7;81.2
78522;SHT31;67819;51.972;5.678;2023-08-17T03:46:59;15.7;81.0
78522;SHT31;67819;51.972;5.678;2023-08-17T03:49:27;15.7;81.1
78522;SHT31;67819;51.972;5.678;2023-08-17T03:51:56;15.6;81.2
78522;SHT31;67819;51.972;5.678;2023-08-17T03:54:25;15.6;81.1
78522;SHT31;67819;51.972;5.678;2023-08-17T03:56:53;15.6;81.0
78522;SHT31;67819;51.972;5.678;2023-08-17T03:59:22;15.6;80.9
78522;SHT31;67819;51.972;5.678;2023-08-17T04:01:52;15.6;80.9
78522;SHT31;67819;51.972;5.678;2023-08-17T04:04:20;15.5;81.0
78522;SHT31;67819;51.972;5.678;2023-08-17T04:06:49;15.5;81.1
78522;SHT31;67819;51.972;5.678;2023-08-17T04:09:17;15.5;81.1
78522;SHT31;67819;51.972;5.678;2023-08-17T04:11:46;15.4;81.1
78522;SHT31;67819;51.972;5.678;2023-08-17T04:14:14;15.4;81.2
78522;SHT31;67819;51.972;5.678;2023-08-17T04:16:43;15.4;81.3
78522;SHT31;67819;51.972;5.678;2023-08-17T04:19:13;15.3;81.4
78522;SHT31;67819;51.972;5.678;2023-08-17T04:21:42;15.3;81.5
78522;SHT31;67819;51.972;5.678;2023-08-17T04:24:11;15.3;81.8
78522;SHT31;67819;51.972;5.678;2023-08-17T04:26:41;15.2;81.8
78522;SHT31;67819;51.972;5.678;2023-08-17T04:29:12;15.2;81.9
78522;SHT31;67819;51.972;5.678;2023-08-17T04:31:43;15.2;82.2
78522;SHT31;67819;51.972;5.678;2023-08-17T04:34:12;15.1;82.2
78522;SHT31;67819;51.972;5.678;2023-08-17T04:36:40;15.1;82.3
78522;SHT31;67819;51.972;5.678;2023-08-17T04:39:09;15.1;82.5
78522;SHT31;67819;51.972;5.678;2023-08-17T04:41:37;15.1;82.5
78522;SHT31;67819;51.972;5.678;2023-08-17T04:44:07;15.1;82.7
78522;SHT31;67819;51.972;5.678;2023-08-17T04:46:36;15.1;82.7
78522;SHT31;67819;51.972;5.678;2023-08-17T04:49:04;15.1;82.8
78522;SHT31;67819;51.972;5.678;2023-08-17T04:51:33;15.1;82.9
78522;SHT31;67819;51.972;5.678;2023-08-17T04:54:01;15.1;83.2
78522;SHT31;67819;51.972;5.678;2023-08-17T04:56:30;15.1;83.2
78522;SHT31;67819;51.972;5.678;2023-08-17T04:58:59;15.2;83.2
78522;SHT31;67819;51.972;5.678;2023-08-17T05:01:27;15.2;83.3
78522;SHT31;67819;51.972;5.678;2023-08-17T05:03:56;15.2;83.1
78522;SHT31;67819;51.972;5.678;2023-08-17T05:06:24;15.2;83.0
78522;SHT31;67819;51.972;5.678;2023-08-17T05:08:53;15.2;83.0
78522;SHT31;67819;51.972;5.678;2023-08-17T05:11:21;15.2;83.0
78522;SHT31;67819;51.972;5.678;2023-08-17T05:13:50;15.2;83.0
78522;SHT31;67819;51.972;5.678;2023-08-17T05:16:19;15.2;83.1
78522;SHT31;67819;51.972;5.678;2023-08-17T05:18:47;15.2;83.1
78522;SHT31;67819;51.972;5.678;2023-08-17T05:21:16;15.3;83.1
78522;SHT31;67819;51.972;5.678;2023-08-17T05:23:44;15.3;83.2
78522;SHT31;67819;51.972;5.678;2023-08-17T05:26:13;15.3;83.2
78522;SHT31;67819;51.972;5.678;2023-08-17T05:28:41;15.3;83.0
78522;SHT31;67819;51.972;5.678;2023-08-17T05:31:11;15.4;83.0
78522;SHT31;67819;51.972;5.678;2023-08-17T05:33:39;15.4;82.9
78522;SHT31;67819;51.972;5.678;2023-08-17T05:36:09;15.4;82.7
78522;SHT31;67819;51.972;5.678;2023-08-17T05:38:39;15.4;82.7
78522;SHT31;67819;51.972;5.678;2023-08-17T05:41:08;15.4;82.6
78522;SHT31;67819;51.972;5.678;2023-08-17T05:43:38;15.4;82.6
78522;SHT31;67819;51.972;5.678;2023-08-17T05:46:07;15.4;82.7
78522;SHT31;67819;51.972;5.678;2023-08-17T05:48:35;15.4;82.8
78522;SHT31;67819;51.972;5.678;2023-08-17T05:51:04;15.4;82.9
78522;SHT31;67819;51.972;5.678;2023-08-17T05:53:32;15.5;83.0
78522;SHT31;67819;51.972;5.678;2023-08-17T05:56:01;15.5;83.0
78522;SHT31;67819;51.972;5.678;2023-08-17T05:58:29;15.5;82.9
78522;SHT31;67819;51.972;5.678;2023-08-17T06:01:06;15.6;82.9
78522;SHT31;67819;51.972;5.678;2023-08-17T06:03:36;15.6;82.9
78522;SHT31;67819;51.972;5.678;2023-08-17T06:06:05;15.6;82.9
78522;SHT31;67819;51.972;5.678;2023-08-17T06:08:33;15.6;82.9
78522;SHT31;67819;51.972;5.678;2023-08-17T06:11:02;15.7;82.9
78522;SHT31;67819;51.972;5.678;2023-08-17T06:13:33;15.7;82.9
78522;SHT31;67819;51.972;5.678;2023-08-17T06:16:04;15.7;82.9
78522;SHT31;67819;51.972;5.678;2023-08-17T06:18:32;15.8;82.8
78522;SHT31;67819;51.972;5.678;2023-08-17T06:21:01;15.8;83.0
78522;SHT31;67819;51.972;5.678;2023-08-17T06:23:29;15.8;83.0
78522;SHT31;67819;51.972;5.678;2023-08-17T06:25:58;15.9;83.0
78522;SHT31;67819;51.972;5.678;2023-08-17T06:28:27;16.6;79.6
78522;SHT31;67819;51.972;5.678;2023-08-17T06:30:56;16.7;79.7
78522;SHT31;67819;51.972;5.678;2023-08-17T06:33:24;16.8;79.5
78522;SHT31;67819;51.972;5.678;2023-08-17T06:35:53;16.8;79.5
78522;SHT31;67819;51.972;5.678;2023-08-17T06:38:21;16.8;79.6
78522;SHT31;67819;51.972;5.678;2023-08-17T06:40:51;16.8;79.8
78522;SHT31;67819;51.972;5.678;2023-08-17T06:43:22;16.8;79.9
78522;SHT31;67819;51.972;5.678;2023-08-17T06:45:50;16.8;80.1
78522;SHT31;67819;51.972;5.678;2023-08-17T06:48:21;16.8;80.2
78522;SHT31;67819;51.972;5.678;2023-08-17T06:50:49;16.8;80.4
78522;SHT31;67819;51.972;5.678;2023-08-17T06:53:17;16.8;80.5
78522;SHT31;67819;51.972;5.678;2023-08-17T06:55:46;16.8;80.8
78522;SHT31;67819;51.972;5.678;2023-08-17T06:58:15;16.9;80.7
78522;SHT31;67819;51.972;5.678;2023-08-17T07:00:45;16.9;80.5
78522;SHT31;67819;51.972;5.678;2023-08-17T07:03:14;16.9;80.6
78522;SHT31;67819;51.972;5.678;2023-08-17T07:05:43;16.9;80.7
78522;SHT31;67819;51.972;5.678;2023-08-17T07:08:12;16.9;80.7
78522;SHT31;67819;51.972;5.678;2023-08-17T07:10:41;16.9;80.6
78522;SHT31;67819;51.972;5.678;2023-08-17T07:13:10;16.9;80.7
78522;SHT31;67819;51.972;5.678;2023-08-17T07:15:38;17.0;80.4
78522;SHT31;67819;51.972;5.678;2023-08-17T07:18:07;17.0;80.3
78522;SHT31;67819;51.972;5.678;2023-08-17T07:20:35;17.0;80.3
78522;SHT31;67819;51.972;5.678;2023-08-17T07:23:04;17.0;80.4
78522;SHT31;67819;51.972;5.678;2023-08-17T07:25:32;17.0;80.4
78522;SHT31;67819;51.972;5.678;2023-08-17T07:28:01;17.0;80.4
78522;SHT31;67819;51.972;5.678;2023-08-17T07:30:29;17.0;80.4
78522;SHT31;67819;51.972;5.678;2023-08-17T07:32:58;17.0;80.4
78522;SHT31;67819;51.972;5.678;2023-08-17T07:35:28;17.0;80.5
78522;SHT31;67819;51.972;5.678;2023-08-17T07:37:57;17.0;80.7
78522;SHT31;67819;51.972;5.678;2023-08-17T07:40:25;17.1;80.5
78522;SHT31;67819;51.972;5.678;2023-08-17T07:42:56;17.1;80.4
78522;SHT31;67819;51.972;5.678;2023-08-17T07:45:26;17.1;80.5
78522;SHT31;67819;51.972;5.678;2023-08-17T07:47:54;17.1;80.5
78522;SHT31;67819;51.972;5.678;2023-08-17T07:50:23;17.2;80.6
78522;SHT31;67819;51.972;5.678;2023-08-17T07:52:51;17.2;80.8
78522;SHT31;67819;51.972;5.678;2023-08-17T07:55:20;17.3;80.9
78522;SHT31;67819;51.972;5.678;2023-08-17T07:57:49;17.3;80.8
78522;SHT31;67819;51.972;5.678;2023-08-17T08:00:18;17.4;80.6
78522;SHT31;67819;51.972;5.678;2023-08-17T08:02:47;17.5;80.5
78522;SHT31;67819;51.972;5.678;2023-08-17T08:05:16;17.5;80.5
78522;SHT31;67819;51.972;5.678;2023-08-17T08:07:44;17.6;80.4
78522;SHT31;67819;51.972;5.678;2023-08-17T08:10:13;17.7;80.0
78522;SHT31;67819;51.972;5.678;2023-08-17T08:12:42;17.7;79.6
78522;SHT31;67819;51.972;5.678;2023-08-17T08:15:12;17.8;79.4
78522;SHT31;67819;51.972;5.678;2023-08-17T08:17:43;17.8;79.1
78522;SHT31;67819;51.972;5.678;2023-08-17T08:20:12;17.8;78.8
78522;SHT31;67819;51.972;5.678;2023-08-17T08:22:40;17.8;78.8
78522;SHT31;67819;51.972;5.678;2023-08-17T08:25:10;17.9;78.9
78522;SHT31;67819;51.972;5.678;2023-08-17T08:27:38;17.9;78.7
78522;SHT31;67819;51.972;5.678;2023-08-17T08:30:07;17.9;78.6
78522;SHT31;67819;51.972;5.678;2023-08-17T08:32:36;17.9;78.6
78522;SHT31;67819;51.972;5.678;2023-08-17T08:35:05;17.9;78.4
78522;SHT31;67819;51.972;5.678;2023-08-17T08:37:34;18.0;78.5
78522;SHT31;67819;51.972;5.678;2023-08-17T08:40:03;18.0;78.7
78522;SHT31;67819;51.972;5.678;2023-08-17T08:42:32;18.0;78.5
78522;SHT31;67819;51.972;5.678;2023-08-17T08:45:01;18.0;78.3
78522;SHT31;67819;51.972;5.678;2023-08-17T08:47:32;18.0;78.4
78522;SHT31;67819;51.972;5.678;2023-08-17T08:50:04;18.0;78.1
78522;SHT31;67819;51.972;5.678;2023-08-17T08:52:36;18.0;77.9
78522;SHT31;67819;51.972;5.678;2023-08-17T08:55:13;18.0;78.0
78522;SHT31;67819;51.972;5.678;2023-08-17T08:57:44;18.0;78.1
78522;SHT31;67819;51.972;5.678;2023-08-17T09:00:13;18.0;78.0
78522;SHT31;67819;51.972;5.678;2023-08-17T09:02:43;18.0;78.0
78522;SHT31;67819;51.972;5.678;2023-08-17T09:05:13;17.9;78.1
78522;SHT31;67819;51.972;5.678;2023-08-17T09:07:42;17.9;77.9
78522;SHT31;67819;51.972;5.678;2023-08-17T09:10:11;17.9;77.9
78522;SHT31;67819;51.972;5.678;2023-08-17T09:12:45;17.9;77.9
78522;SHT31;67819;51.972;5.678;2023-08-17T09:15:13;17.9;78.0
78522;SHT31;67819;51.972;5.678;2023-08-17T09:17:42;17.8;78.1
78522;SHT31;67819;51.972;5.678;2023-08-17T09:20:38;17.8;78.1
78522;SHT31;67819;51.972;5.678;2023-08-17T09:23:12;17.8;78.3
78522;SHT31;67819;51.972;5.678;2023-08-17T09:25:43;17.8;78.5
78522;SHT31;67819;51.972;5.678;2023-08-17T09:28:13;17.9;78.9
78522;SHT31;67819;51.972;5.678;2023-08-17T09:30:52;17.9;78.8
78522;SHT31;67819;51.972;5.678;2023-08-17T09:33:23;17.9;78.8
78522;SHT31;67819;51.972;5.678;2023-08-17T09:35:53;17.9;78.8
78522;SHT31;67819;51.972;5.678;2023-08-17T09:38:22;18.0;78.8
78522;SHT31;67819;51.972;5.678;2023-08-17T09:40:52;18.0;78.8
78522;SHT31;67819;51.972;5.678;2023-08-17T09:43:21;18.0;78.8
78522;SHT31;67819;51.972;5.678;2023-08-17T09:45:51;18.0;78.8
78522;SHT31;67819;51.972;5.678;2023-08-17T09:48:20;18.1;78.8
78522;SHT31;67819;51.972;5.678;2023-08-17T09:50:50;18.1;78.9
78522;SHT31;67819;51.972;5.678;2023-08-17T09:53:19;18.1;78.9
78522;SHT31;67819;51.972;5.678;2023-08-17T09:55:47;18.2;78.6
78522;SHT31;67819;51.972;5.678;2023-08-17T09:58:16;18.2;78.2
78522;SHT31;67819;51.972;5.678;2023-08-17T10:00:46;18.2;77.8
78522;SHT31;67819;51.972;5.678;2023-08-17T10:03:17;18.1;77.8
78522;SHT31;67819;51.972;5.678;2023-08-17T10:05:48;18.1;77.9
78522;SHT31;67819;51.972;5.678;2023-08-17T10:08:22;18.1;78.1
78522;SHT31;67819;51.972;5.678;2023-08-17T10:10:51;18.1;78.4
78522;SHT31;67819;51.972;5.678;2023-08-17T10:13:30;18.2;78.8
78522;SHT31;67819;51.972;5.678;2023-08-17T10:16:02;18.2;78.9
78522;SHT31;67819;51.972;5.678;2023-08-17T10:18:39;18.3;78.9
78522;SHT31;67819;51.972;5.678;2023-08-17T10:21:15;18.3;78.7
78522;SHT31;67819;51.972;5.678;2023-08-17T10:23:46;18.4;78.7
78522;SHT31;67819;51.972;5.678;2023-08-17T10:26:16;18.4;78.5
78522;SHT31;67819;51.972;5.678;2023-08-17T10:28:46;18.4;78.4
78522;SHT31;67819;51.972;5.678;2023-08-17T10:31:16;18.5;78.5
78522;SHT31;67819;51.972;5.678;2023-08-17T10:33:47;18.5;78.4
78522;SHT31;67819;51.972;5.678;2023-08-17T10:36:17;18.5;78.2
78522;SHT31;67819;51.972;5.678;2023-08-17T10:38:48;18.5;78.1
78522;SHT31;67819;51.972;5.678;2023-08-17T10:41:21;18.5;78.1
78522;SHT31;67819;51.972;5.678;2023-08-17T10:43:58;18.5;78.2
78522;SHT31;67819;51.972;5.678;2023-08-17T10:46:37;18.6;78.3
78522;SHT31;67819;51.972;5.678;2023-08-17T10:49:23;18.6;78.2
78522;SHT31;67819;51.972;5.678;2023-08-17T10:52:01;18.7;78.3
78522;SHT31;67819;51.972;5.678;2023-08-17T10:54:38;18.7;78.2
78522;SHT31;67819;51.972;5.678;2023-08-17T10:59:01;18.8;78.4
78522;SHT31;67819;51.972;5.678;2023-08-17T11:01:35;18.9;78.2
78522;SHT31;67819;51.972;5.678;2023-08-17T11:04:11;19.0;77.6
78522;SHT31;67819;51.972;5.678;2023-08-17T11:06:41;19.0;77.6
78522;SHT31;67819;51.972;5.678;2023-08-17T11:09:10;19.0;77.4
78522;SHT31;67819;51.972;5.678;2023-08-17T11:11:39;19.0;77.3
78522;SHT31;67819;51.972;5.678;2023-08-17T11:14:08;19.0;77.0
78522;SHT31;67819;51.972;5.678;2023-08-17T11:16:37;19.0;76.8
78522;SHT31;67819;51.972;5.678;2023-08-17T11:19:05;19.0;76.8
78522;SHT31;67819;51.972;5.678;2023-08-17T11:21:35;19.0;76.7
78522;SHT31;67819;51.972;5.678;2023-08-17T11:24:05;19.0;76.6
78522;SHT31;67819;51.972;5.678;2023-08-17T11:26:36;19.0;76.5
78522;SHT31;67819;51.972;5.678;2023-08-17T11:29:04;19.0;76.5
78522;SHT31;67819;51.972;5.678;2023-08-17T11:31:33;19.0;76.6
78522;SHT31;67819;51.972;5.678;2023-08-17T11:34:04;19.0;76.8
78522;SHT31;67819;51.972;5.678;2023-08-17T11:36:33;19.0;76.7
78522;SHT31;67819;51.972;5.678;2023-08-17T11:39:04;19.0;76.9
78522;SHT31;67819;51.972;5.678;2023-08-17T11:41:34;19.0;77.1
78522;SHT31;67819;51.972;5.678;2023-08-17T11:44:04;19.0;77.2
78522;SHT31;67819;51.972;5.678;2023-08-17T11:46:34;19.0;77.1
78522;SHT31;67819;51.972;5.678;2023-08-17T11:49:02;19.1;76.8
78522;SHT31;67819;51.972;5.678;2023-08-17T11:51:31;19.1;76.9
78522;SHT31;67819;51.972;5.678;2023-08-17T11:54:01;19.1;77.0
78522;SHT31;67819;51.972;5.678;2023-08-17T11:56:35;19.1;76.8
78522;SHT31;67819;51.972;5.678;2023-08-17T11:59:10;19.1;76.9
78522;SHT31;67819;51.972;5.678;2023-08-17T12:01:40;19.1;76.7
78522;SHT31;67819;51.972;5.678;2023-08-17T12:04:09;19.1;76.7
78522;SHT31;67819;51.972;5.678;2023-08-17T12:06:43;19.1;76.7
78522;SHT31;67819;51.972;5.678;2023-08-17T12:09:12;19.1;76.7
78522;SHT31;67819;51.972;5.678;2023-08-17T12:11:44;19.1;76.8
78522;SHT31;67819;51.972;5.678;2023-08-17T12:14:13;19.1;76.7
78522;SHT31;67819;51.972;5.678;2023-08-17T12:16:48;19.1;76.5
78522;SHT31;67819;51.972;5.678;2023-08-17T12:19:16;19.1;76.6
78522;SHT31;67819;51.972;5.678;2023-08-17T12:21:48;19.1;76.6
78522;SHT31;67819;51.972;5.678;2023-08-17T12:24:17;19.1;76.8
78522;SHT31;67819;51.972;5.678;2023-08-17T12:26:46;19.1;77.0
78522;SHT31;67819;51.972;5.678;2023-08-17T12:29:15;19.1;77.0
78522;SHT31;67819;51.972;5.678;2023-08-17T12:31:44;19.1;77.3
78522;SHT31;67819;51.972;5.678;2023-08-17T12:34:13;19.1;77.4
78522;SHT31;67819;51.972;5.678;2023-08-17T12:36:44;19.1;77.2
78522;SHT31;67819;51.972;5.678;2023-08-17T12:39:13;19.2;77.2
78522;SHT31;67819;51.972;5.678;2023-08-17T12:41:41;19.2;77.2
78522;SHT31;67819;51.972;5.678;2023-08-17T12:44:12;19.2;77.2
78522;SHT31;67819;51.972;5.678;2023-08-17T12:46:41;19.2;77.1
78522;SHT31;67819;51.972;5.678;2023-08-17T12:49:10;19.2;77.3
78522;SHT31;67819;51.972;5.678;2023-08-17T12:51:40;19.3;77.4
78522;SHT31;67819;51.972;5.678;2023-08-17T12:54:09;19.3;77.3
78522;SHT31;67819;51.972;5.678;2023-08-17T12:56:37;19.3;77.3
78522;SHT31;67819;51.972;5.678;2023-08-17T12:59:06;19.4;76.9
78522;SHT31;67819;51.972;5.678;2023-08-17T13:01:37;19.4;76.9
78522;SHT31;67819;51.972;5.678;2023-08-17T13:04:06;19.4;76.8
78522;SHT31;67819;51.972;5.678;2023-08-17T13:06:35;19.4;76.7
78522;SHT31;67819;51.972;5.678;2023-08-17T13:09:04;19.4;76.8
78522;SHT31;67819;51.972;5.678;2023-08-17T13:11:33;19.4;76.7
78522;SHT31;67819;51.972;5.678;2023-08-17T13:14:01;19.3;76.6
78522;SHT31;67819;51.972;5.678;2023-08-17T13:16:30;19.3;76.6
78522;SHT31;67819;51.972;5.678;2023-08-17T13:18:58;19.3;76.6
78522;SHT31;67819;51.972;5.678;2023-08-17T13:21:27;19.3;76.7
78522;SHT31;67819;51.972;5.678;2023-08-17T13:23:55;19.3;76.9
78522;SHT31;67819;51.972;5.678;2023-08-17T13:26:24;19.3;77.0
78522;SHT31;67819;51.972;5.678;2023-08-17T13:28:54;19.3;77.0
78522;SHT31;67819;51.972;5.678;2023-08-17T13:31:23;19.3;76.9
78522;SHT31;67819;51.972;5.678;2023-08-17T13:33:52;19.3;76.9
78522;SHT31;67819;51.972;5.678;2023-08-17T13:36:20;19.3;76.9
78522;SHT31;67819;51.972;5.678;2023-08-17T13:38:49;19.3;76.9
78522;SHT31;67819;51.972;5.678;2023-08-17T13:41:18;19.3;76.8
78522;SHT31;67819;51.972;5.678;2023-08-17T13:43:46;19.3;76.9
78522;SHT31;67819;51.972;5.678;2023-08-17T13:46:15;19.3;76.9
78522;SHT31;67819;51.972;5.678;2023-08-17T13:48:43;19.3;76.9
78522;SHT31;67819;51.972;5.678;2023-08-17T13:51:12;19.3;76.8
78522;SHT31;67819;51.972;5.678;2023-08-17T13:53:40;19.3;76.8
78522;SHT31;67819;51.972;5.678;2023-08-17T13:56:11;19.2;76.9
78522;SHT31;67819;51.972;5.678;2023-08-17T13:58:40;19.2;77.1
78522;SHT31;67819;51.972;5.678;2023-08-17T14:01:08;19.2;77.2
78522;SHT31;67819;51.972;5.678;2023-08-17T14:03:37;19.2;77.2
78522;SHT31;67819;51.972;5.678;2023-08-17T14:06:08;19.2;77.3
78522;SHT31;67819;51.972;5.678;2023-08-17T14:08:37;19.2;77.4
78522;SHT31;67819;51.972;5.678;2023-08-17T14:11:07;19.1;77.5
78522;SHT31;67819;51.972;5.678;2023-08-17T14:13:36;19.1;77.5
78522;SHT31;67819;51.972;5.678;2023-08-17T14:16:05;19.1;77.4
78522;SHT31;67819;51.972;5.678;2023-08-17T14:18:34;19.1;77.6
78522;SHT31;67819;51.972;5.678;2023-08-17T14:21:02;19.1;77.7
78522;SHT31;67819;51.972;5.678;2023-08-17T14:23:31;19.1;78.0
78522;SHT31;67819;51.972;5.678;2023-08-17T14:25:59;19.1;78.2
78522;SHT31;67819;51.972;5.678;2023-08-17T14:28:28;19.1;78.3
78522;SHT31;67819;51.972;5.678;2023-08-17T14:30:57;19.1;78.3
78522;SHT31;67819;51.972;5.678;2023-08-17T14:33:25;19.1;78.5
78522;SHT31;67819;51.972;5.678;2023-08-17T14:35:56;19.1;78.6
78522;SHT31;67819;51.972;5.678;2023-08-17T14:38:24;19.1;78.7
78522;SHT31;67819;51.972;5.678;2023-08-17T14:40:52;19.1;78.6
78522;SHT31;67819;51.972;5.678;2023-08-17T14:43:21;19.1;78.4
78522;SHT31;67819;51.972;5.678;2023-08-17T14:45:52;19.1;78.5
78522;SHT31;67819;51.972;5.678;2023-08-17T14:48:22;19.1;78.6
78522;SHT31;67819;51.972;5.678;2023-08-17T14:50:53;19.2;78.7
78522;SHT31;67819;51.972;5.678;2023-08-17T14:53:22;19.2;78.7
78522;SHT31;67819;51.972;5.678;2023-08-17T14:55:50;19.2;78.7
78522;SHT31;67819;51.972;5.678;2023-08-17T14:58:19;19.2;78.5
78522;SHT31;67819;51.972;5.678;2023-08-17T15:00:48;19.2;78.4
78522;SHT31;67819;51.972;5.678;2023-08-17T15:03:16;19.2;78.5
78522;SHT31;67819;51.972;5.678;2023-08-17T15:05:46;19.2;78.6
78522;SHT31;67819;51.972;5.678;2023-08-17T15:08:15;19.2;78.8
78522;SHT31;67819;51.972;5.678;2023-08-17T15:10:46;19.2;78.8
78522;SHT31;67819;51.972;5.678;2023-08-17T15:13:14;19.2;78.7
78522;SHT31;67819;51.972;5.678;2023-08-17T15:15:44;19.2;78.7
78522;SHT31;67819;51.972;5.678;2023-08-17T15:18:13;19.1;78.7
78522;SHT31;67819;51.972;5.678;2023-08-17T15:20:41;19.1;78.8
78522;SHT31;67819;51.972;5.678;2023-08-17T15:23:10;19.1;79.0
78522;SHT31;67819;51.972;5.678;2023-08-17T15:25:38;19.1;79.0
78522;SHT31;67819;51.972;5.678;2023-08-17T15:28:07;19.1;79.0
78522;SHT31;67819;51.972;5.678;2023-08-17T15:30:35;19.1;79.1
78522;SHT31;67819;51.972;5.678;2023-08-17T15:33:04;19.1;79.3
78522;SHT31;67819;51.972;5.678;2023-08-17T15:35:33;19.1;79.4
78522;SHT31;67819;51.972;5.678;2023-08-17T15:38:01;19.1;79.6
78522;SHT31;67819;51.972;5.678;2023-08-17T15:40:30;19.1;79.7
78522;SHT31;67819;51.972;5.678;2023-08-17T15:42:58;19.1;79.6
78522;SHT31;67819;51.972;5.678;2023-08-17T15:45:27;19.1;79.5
78522;SHT31;67819;51.972;5.678;2023-08-17T15:47:55;19.1;79.4
78522;SHT31;67819;51.972;5.678;2023-08-17T15:50:24;19.1;79.4
78522;SHT31;67819;51.972;5.678;2023-08-17T15:52:53;19.1;79.5
78522;SHT31;67819;51.972;5.678;2023-08-17T15:55:21;19.1;79.4
78522;SHT31;67819;51.972;5.678;2023-08-17T15:57:50;19.1;79.6
78522;SHT31;67819;51.972;5.678;2023-08-17T16:00:18;19.1;79.6
78522;SHT31;67819;51.972;5.678;2023-08-17T16:02:47;19.1;79.6
78522;SHT31;67819;51.972;5.678;2023-08-17T16:05:15;19.1;79.6
78522;SHT31;67819;51.972;5.678;2023-08-17T16:07:46;19.1;79.6
78522;SHT31;67819;51.972;5.678;2023-08-17T16:10:16;19.1;79.7
78522;SHT31;67819;51.972;5.678;2023-08-17T16:12:45;19.2;79.8
78522;SHT31;67819;51.972;5.678;2023-08-17T16:15:13;19.2;79.8
78522;SHT31;67819;51.972;5.678;2023-08-17T16:17:42;19.2;79.9